CLASSIFICATION TEAM 10 Mile Time Trial
home
    idracetypedateroutekmelevation (m)Pos.PETTORALEFamily NameNamescoregenderteamNAZIONALITACATEGORIAPOSIZIONECATTimeReal
    time
    Average
    km/hr
    RW10 Mile Time TrialTT21/11/2018unic16,0950,00121SyfrigBruno200MRWSwissSenior Male1/400:23:0200:23:0241,90
    RW10 Mile Time TrialTT21/11/2018unic16,0950,002110BakerJosh199MRWBritishOpen Male1/1700:23:2000:23:2041,30
    RW10 Mile Time TrialTT21/11/2018unic16,0950,0034KubaJiri198MRWGermanSenior Male2/400:23:4200:23:4240,70
    RW10 Mile Time TrialTT21/11/2018unic16,0950,00472DercoBrandon197MRWAmericanVeteran Male1/3000:23:4800:23:4840,50
    RW10 Mile Time TrialTT21/11/2018unic16,0950,0055von SkwarczinskyClemens196MRWGermanVeteran Male2/3000:23:4900:23:4940,50
    RW10 Mile Time TrialTT21/11/2018unic16,0950,00644AlKhuwaiterRayan195MRWSaudiOpen Male2/1700:23:5300:23:5340,40
    RW10 Mile Time TrialTT21/11/2018unic16,0950,00759BallMartin194MRWBritishMaster Male1/1500:23:5500:23:5540,30
    RW10 Mile Time TrialTT21/11/2018unic16,0950,00852BuckleyPeter193MRWBritishMaster Male2/1500:23:5900:23:5940,20
    RW10 Mile Time TrialTT21/11/2018unic16,0950,00918PoetzschPatrick192MRWGermanVeteran Male3/3000:24:1500:24:1539,80
    RW10 Mile Time TrialTT21/11/2018unic16,0950,00106Dela RosaMichael191MRWFilipinoOpen Male3/1700:24:3200:24:3239,30
    RW10 Mile Time TrialTT21/11/2018unic16,0950,001112McLeanJohn190MRWBritishVeteran Male4/3000:24:4000:24:4039,10
    RW10 Mile Time TrialTT21/11/2018unic16,0950,001217PinanoAlfie189MRWFilipinoOpen Male4/1700:24:5900:24:5938,60
    RW10 Mile Time TrialTT21/11/2018unic16,0950,001334SumonodJorge188MRWFilipinoOpen Male5/1700:25:2700:25:2737,90
    RW10 Mile Time TrialTT21/11/2018unic16,0950,001424GankemaJeroen187MRWNetherlandsVeteran Male5/3000:25:2700:25:2737,90
    RW10 Mile Time TrialTT21/11/2018unic16,0950,001536JohnsonDavid186MRWAmericanOpen Male6/1700:25:4900:25:4937,40
    RW10 Mile Time TrialTT21/11/2018unic16,0950,00167SolimanPercival Jr185MRWFilipinoVeteran Male6/3000:25:5200:25:5237,30
    RW10 Mile Time TrialTT21/11/2018unic16,0950,001793ForeroYezith184MRWColombianVeteran Male7/3000:25:5900:25:5937,10
    RW10 Mile Time TrialTT21/11/2018unic16,0950,0018111AlvesCarlos183MRWAustralianVeteran Male8/3000:26:1500:26:1536,80
    RW10 Mile Time TrialTT21/11/2018unic16,0950,0019113GicanaRamil182MRWFilipinoVeteran Male9/3000:26:1900:26:1936,70
    RW10 Mile Time TrialTT21/11/2018unic16,0950,002015AlBabtainAnas181MRWSaudiVeteran Male10/3000:26:2900:26:2936,40
    RW10 Mile Time TrialTT21/11/2018unic16,0950,00219WaightScott180MRWNew ZealandVeteran Male11/3000:26:3800:26:3836,20
    RW10 Mile Time TrialTT21/11/2018unic16,0950,002231SungaJaime179MRWFilipinoMaster Male3/1500:26:4100:26:4136,20
    RW10 Mile Time TrialTT21/11/2018unic16,0950,002369DetomalBernard178MRWFilipinoVeteran Male12/3000:26:4200:26:4236,10
    RW10 Mile Time TrialTT21/11/2018unic16,0950,002477SkarupaTomasz177MRWItalianVeteran Male13/3000:26:4500:26:4536,10
    RW10 Mile Time TrialTT21/11/2018unic16,0950,0025206TavaresSkyeFRWNew ZealandVeteran Female1/200:26:5600:26:5635,80
    RW10 Mile Time TrialTT21/11/2018unic16,0950,002638TubangJulieto176MRWFilipinoMaster Male4/1500:26:5900:26:5935,70
    RW10 Mile Time TrialTT21/11/2018unic16,0950,0027205TavaresGuidoMRWBrazilianVeteran Male14/3000:27:0000:27:0035,70
    RW10 Mile Time TrialTT21/11/2018unic16,0950,002823CalagoErwin175MRWFilipinoVeteran Male15/3000:27:0300:27:0335,70
    RW10 Mile Time TrialTT21/11/2018unic16,0950,002939AltavasJose Cortes174MRWFilipinoVeteran Male16/3000:27:2600:27:2635,20
    RW10 Mile Time TrialTT21/11/2018unic16,0950,0030123MarinasHerbert Paul173MRWFilipinoOpen Male7/1700:27:3500:27:3535,00
    RW10 Mile Time TrialTT21/11/2018unic16,0950,0031202BrackmannThomasMRWGermanVeteran Male17/3000:27:3800:27:3834,90
    RW10 Mile Time TrialTT21/11/2018unic16,0950,003249BakerAdele200FRWBritishVeteran Female2/200:27:4400:27:4434,80
    RW10 Mile Time TrialTT21/11/2018unic16,0950,0033211AlBadilBadrMRWSaudiMaster Male5/1500:27:4600:27:4634,70
    RW10 Mile Time TrialTT21/11/2018unic16,0950,003419SantosMarvin172MRWFilipinoOpen Male8/1700:27:5000:27:5034,70
    RW10 Mile Time TrialTT21/11/2018unic16,0950,003561GarthMichael171MRWBritishMaster Male6/1500:27:5000:27:5034,60
    RW10 Mile Time TrialTT21/11/2018unic16,0950,003637LandoEdoardo170MRWItalianSenior Male3/400:27:5900:27:5934,50
    RW10 Mile Time TrialTT21/11/2018unic16,0950,003741TolentinoWilliam169MRWFilipinoMaster Male7/1500:28:0200:28:0234,40
    RW10 Mile Time TrialTT21/11/2018unic16,0950,003811AlMuayqilAbdulmajeed168MRWSaudiOpen Male9/1700:28:0500:28:0534,30
    RW10 Mile Time TrialTT21/11/2018unic16,0950,003960StrongBrian167MRWCanadianMaster Male8/1500:28:1900:28:1934,10
    RW10 Mile Time TrialTT21/11/2018unic16,0950,004078MaicanSorin166MRWRomaniaVeteran Male18/3000:28:2100:28:2134,00
    RW10 Mile Time TrialTT21/11/2018unic16,0950,0041128GicanaJun165MRWFilipinoVeteran Male19/3000:28:2200:28:2234,00
    RW10 Mile Time TrialTT21/11/2018unic16,0950,004282ManicdaoAriel164MRWFilipinoVeteran Male20/3000:28:2900:28:2933,90
    RW10 Mile Time TrialTT21/11/2018unic16,0950,004397MartinezDavid163MRWSpanishVeteran Male21/3000:28:3200:28:3233,80
    RW10 Mile Time TrialTT21/11/2018unic16,0950,004446CaceresMarvin162MRWFilipinoVeteran Male22/3000:28:4500:28:4533,50
    RW10 Mile Time TrialTT21/11/2018unic16,0950,004571MendozaRichard161MRWFilipinoVeteran Male23/3000:29:0300:29:0333,20
    RW10 Mile Time TrialTT21/11/2018unic16,0950,0046201AdesokanColinMRWAmericanMaster Male9/1500:29:0900:29:0933,10
    RW10 Mile Time TrialTT21/11/2018unic16,0950,0047117CordialJun160MRWFilipinoVeteran Male24/3000:29:1600:29:1633,00
    RW10 Mile Time TrialTT21/11/2018unic16,0950,004822PeruchoRonald159MRWFilipinoVeteran Male25/3000:29:2300:29:2332,80
    RW10 Mile Time TrialTT21/11/2018unic16,0950,004925MendozaHans200MRWFilipinoJunior Male1/300:29:2700:29:2732,80
    RW10 Mile Time TrialTT21/11/2018unic16,0950,005026KootPaul158MRWNetherlandsOpen Male10/1700:29:2800:29:2832,70
    RW10 Mile Time TrialTT21/11/2018unic16,0950,005157WeidnerThomas157MRWGermanVeteran Male26/3000:29:3500:29:3532,60
    RW10 Mile Time TrialTT21/11/2018unic16,0950,005232OcaEdilberto156MRWFilipinoMaster Male10/1500:29:3800:29:3832,60
    RW10 Mile Time TrialTT21/11/2018unic16,0950,005383SchaeferColin155MRWAmericanOpen Male11/1700:29:5600:29:5632,20
    RW10 Mile Time TrialTT21/11/2018unic16,0950,005420TabbalFloren Pal154MRWFilipinoOpen Male12/1700:29:5800:29:5832,20
    RW10 Mile Time TrialTT21/11/2018unic16,0950,005555Suarez FernandezAntonio153MRWSpanishVeteran Male27/3000:29:5900:29:5932,20
    RW10 Mile Time TrialTT21/11/2018unic16,0950,0056120AlTuwaijriNezar152MRWSaudiOpen Male13/1700:30:0200:30:0232,10
    RW10 Mile Time TrialTT21/11/2018unic16,0950,005733MarinasFlorie199FRWFilipinoOpen Female1/600:30:0400:30:0432,10
    RW10 Mile Time TrialTT21/11/2018unic16,0950,005858SweertsWillem151MRWNetherlandsVeteran Male28/3000:30:1400:30:1431,90
    RW10 Mile Time TrialTT21/11/2018unic16,0950,005981JavierJessie150MRWFilipinoMaster Male11/1500:31:0400:31:0431,00
    RW10 Mile Time TrialTT21/11/2018unic16,0950,0060116CordialNico Andrei199MRWFilipinoJunior Male2/300:31:2900:31:2930,60
    RW10 Mile Time TrialTT21/11/2018unic16,0950,006153FerreiraCaroline198FRWBrazilianOpen Female2/600:31:3700:31:3730,50
    RW10 Mile Time TrialTT21/11/2018unic16,0950,006250SinerPaul149MRWBritishVeteran Male29/3000:31:5100:31:5130,30
    RW10 Mile Time TrialTT21/11/2018unic16,0950,006328EllaBenedict148MRWFilipinoMaster Male12/1500:32:3100:32:3129,70
    RW10 Mile Time TrialTT21/11/2018unic16,0950,006485JangGyoungoh147MRWKoreanMaster Male13/1500:32:3900:32:3929,50
    RW10 Mile Time TrialTT21/11/2018unic16,0950,0065209LahayeDenisMRWBelgianOpen Male14/1700:32:4700:32:4729,40
    RW10 Mile Time TrialTT21/11/2018unic16,0950,006694MahfouzTalal146MRWFrenchSenior Male4/400:33:2000:33:2028,90
    RW10 Mile Time TrialTT21/11/2018unic16,0950,006768PetkovskiDragan145MRWCroatiaMaster Male14/1500:33:3400:33:3428,70
    RW10 Mile Time TrialTT21/11/2018unic16,0950,006862CrepaldiGustavo144MRWBrazilianVeteran Male30/3000:34:0900:34:0928,20
    RW10 Mile Time TrialTT21/11/2018unic16,0950,006943SatputeSanjay143MRWIndianOpen Male15/1700:35:0300:35:0327,50
    RW10 Mile Time TrialTT21/11/2018unic16,0950,007030MarinasRaffaello David198MRWFilipinoJunior Male3/300:35:1700:35:1727,30
    RW10 Mile Time TrialTT21/11/2018unic16,0950,0071102LandoFederica397FRWItalianJunior Female1/200:35:4500:35:4527,00
    RW10 Mile Time TrialTT21/11/2018unic16,0950,007254AlsarhaniAbdullah142MRWSaudiMaster Male15/1500:35:5000:35:5026,90
    RW10 Mile Time TrialTT21/11/2018unic16,0950,0073203GatesTimMRWBritishOpen Male16/1700:36:4600:36:4626,20
    RW10 Mile Time TrialTT21/11/2018unic16,0950,0074210SchaeferAmandaFRWAmericanOpen Female3/600:36:5500:36:5526,10
    RW10 Mile Time TrialTT21/11/2018unic16,0950,0075101LandoAlexandra199FRWItalianJunior Female2/200:37:3200:37:3225,70
    RW10 Mile Time TrialTT21/11/2018unic16,0950,0076207PierquinGwenaelleFRWBelgianOpen Female4/600:37:4700:37:4725,50
    RW10 Mile Time TrialTT21/11/2018unic16,0950,007751SinerAnastassiya196FRWKazakhstanOpen Female5/600:39:1300:39:1324,60
    RW10 Mile Time TrialTT21/11/2018unic16,0950,0078200KerbageBoulosMRWLebaneseOpen Male17/1700:39:4400:39:4424,30
    RW10 Mile Time TrialTT21/11/2018unic16,0950,007913EdwardsKim195FRWAustralianMaster Female100:41:5000:41:5023,00
    RW10 Mile Time TrialTT21/11/2018unic16,0950,0080204KhalafRawanFRWPalestineOpen Female6/600:59:4100:59:4116,10
    idracetypedateroute1.287,20
    km
    4000
    dislivello
    80
    n
    BIDFamily NameNamescoregenderteamNationalityCategoryPos.Cat.TimeReal
    time
    Average
    km/hr
Syfrig BrunoBaker JoshKuba Jirivon Skwarczinsky ClemensBuckley PeterDela Rosa MichaelMcLean JohnSumonod JorgeGankema JeroenJohnson DavidSoliman Percival JrForero YezithAlves CarlosGicana RamilWaight ScottSunga JaimeDetomal BernardSkarupa TomaszCalago ErwinAltavas Jose Cortes
Marinas Herbert PaulBaker AdeleGarth MichaelLando EdoardoTolentino WilliamStrong BrianMaican SorinCaceres MarvinMendoza RichardCordial JunMendoza HansOca EdilbertoSchaefer ColinTabbal Floren PalSuarez Fernandez AntonioMarinas FlorieSweerts WillemJavier JessieCordial Nico AndreiElla Benedict
Mahfouz TalalPetkovski DraganSatpute SanjayLando FedericaAlsarhani AbdullahSchaefer AmandaLando Alexandra

10 Mile Time Trial Athletes TEAM (first 200)

FIND ATHLETES races saved
find results also athletes others team
Fam.Name: Name:
rem: to insert Family name (It is simply a part of word)

FIND TEAM Races saved
You can find the result of others team
TEAM: RACE: ROUTE:
rem: to insert one team (It is simply a part of word)


home